sensor_id;sensor_type;location;lat;lon;timestamp;temperature;humidity
17815;DHT22;9031;50.974;11.330;2022-11-04T00:01:27;10.40;99.90
17815;DHT22;9031;50.974;11.330;2022-11-04T00:03:52;10.50;99.90
17815;DHT22;9031;50.974;11.330;2022-11-04T00:06:18;10.50;99.90
17815;DHT22;9031;50.974;11.330;2022-11-04T00:08:48;10.50;99.90
17815;DHT22;9031;50.974;11.330;2022-11-04T00:11:13;10.50;99.90
17815;DHT22;9031;50.974;11.330;2022-11-04T00:13:58;10.40;99.90
17815;DHT22;9031;50.974;11.330;2022-11-04T00:16:23;10.30;99.90
17815;DHT22;9031;50.974;11.330;2022-11-04T00:19:07;10.20;99.90
17815;DHT22;9031;50.974;11.330;2022-11-04T00:21:33;10.10;99.90
17815;DHT22;9031;50.974;11.330;2022-11-04T00:24:17;10.10;99.90
17815;DHT22;9031;50.974;11.330;2022-11-04T00:27:01;10.20;99.90
17815;DHT22;9031;50.974;11.330;2022-11-04T00:29:45;10.10;99.90
17815;DHT22;9031;50.974;11.330;2022-11-04T00:32:10;10.20;99.90
17815;DHT22;9031;50.974;11.330;2022-11-04T00:34:54;10.20;99.90
17815;DHT22;9031;50.974;11.330;2022-11-04T00:37:20;10.40;99.90
17815;DHT22;9031;50.974;11.330;2022-11-04T00:39:46;10.50;99.90
17815;DHT22;9031;50.974;11.330;2022-11-04T00:42:11;10.60;99.90
17815;DHT22;9031;50.974;11.330;2022-11-04T00:44:37;10.50;99.90
17815;DHT22;9031;50.974;11.330;2022-11-04T00:47:03;10.50;99.90
17815;DHT22;9031;50.974;11.330;2022-11-04T00:49:28;10.50;99.90
17815;DHT22;9031;50.974;11.330;2022-11-04T00:51:54;10.50;99.90
17815;DHT22;9031;50.974;11.330;2022-11-04T00:54:19;10.50;99.90
17815;DHT22;9031;50.974;11.330;2022-11-04T00:56:45;10.60;99.90
17815;DHT22;9031;50.974;11.330;2022-11-04T00:59:13;10.60;99.90
17815;DHT22;9031;50.974;11.330;2022-11-04T01:01:39;10.60;99.90
17815;DHT22;9031;50.974;11.330;2022-11-04T01:04:04;10.50;99.90
17815;DHT22;9031;50.974;11.330;2022-11-04T01:06:30;10.60;99.90
17815;DHT22;9031;50.974;11.330;2022-11-04T01:08:56;10.50;99.90
17815;DHT22;9031;50.974;11.330;2022-11-04T01:11:22;10.60;99.90
17815;DHT22;9031;50.974;11.330;2022-11-04T01:13:51;10.60;99.90
17815;DHT22;9031;50.974;11.330;2022-11-04T01:16:17;10.60;99.90
17815;DHT22;9031;50.974;11.330;2022-11-04T01:18:43;10.60;99.90
17815;DHT22;9031;50.974;11.330;2022-11-04T01:21:11;10.60;99.90
17815;DHT22;9031;50.974;11.330;2022-11-04T01:23:38;10.50;99.90
17815;DHT22;9031;50.974;11.330;2022-11-04T01:26:05;10.60;99.90
17815;DHT22;9031;50.974;11.330;2022-11-04T01:28:31;10.60;99.90
17815;DHT22;9031;50.974;11.330;2022-11-04T01:30:57;10.60;99.90
17815;DHT22;9031;50.974;11.330;2022-11-04T01:33:22;10.60;99.90
17815;DHT22;9031;50.974;11.330;2022-11-04T01:35:49;10.60;99.90
17815;DHT22;9031;50.974;11.330;2022-11-04T01:38:15;10.60;99.90
17815;DHT22;9031;50.974;11.330;2022-11-04T01:40:41;10.60;99.90
17815;DHT22;9031;50.974;11.330;2022-11-04T01:49:18;10.70;99.90
17815;DHT22;9031;50.974;11.330;2022-11-04T01:51:48;10.70;99.90
17815;DHT22;9031;50.974;11.330;2022-11-04T01:54:16;10.70;99.90
17815;DHT22;9031;50.974;11.330;2022-11-04T01:56:43;10.60;99.90
17815;DHT22;9031;50.974;11.330;2022-11-04T01:59:19;10.70;99.90
17815;DHT22;9031;50.974;11.330;2022-11-04T02:01:46;10.70;99.90
17815;DHT22;9031;50.974;11.330;2022-11-04T02:04:12;10.80;99.90
17815;DHT22;9031;50.974;11.330;2022-11-04T02:06:53;10.90;99.90
17815;DHT22;9031;50.974;11.330;2022-11-04T02:09:20;11.10;99.90
17815;DHT22;9031;50.974;11.330;2022-11-04T02:11:46;11.20;99.90
17815;DHT22;9031;50.974;11.330;2022-11-04T02:14:31;11.40;99.90
17815;DHT22;9031;50.974;11.330;2022-11-04T02:25:28;11.90;99.90
17815;DHT22;9031;50.974;11.330;2022-11-04T02:28:40;12.10;99.90
17815;DHT22;9031;50.974;11.330;2022-11-04T02:31:05;12.20;99.90
17815;DHT22;9031;50.974;11.330;2022-11-04T02:34:01;12.30;99.90
17815;DHT22;9031;50.974;11.330;2022-11-04T02:36:51;12.40;99.90
17815;DHT22;9031;50.974;11.330;2022-11-04T02:39:38;12.40;99.90
17815;DHT22;9031;50.974;11.330;2022-11-04T02:45:09;12.40;99.90
17815;DHT22;9031;50.974;11.330;2022-11-04T02:47:40;12.40;99.90
17815;DHT22;9031;50.974;11.330;2022-11-04T02:50:16;12.50;99.90
17815;DHT22;9031;50.974;11.330;2022-11-04T02:52:48;12.50;99.90
17815;DHT22;9031;50.974;11.330;2022-11-04T02:55:34;12.50;99.90
17815;DHT22;9031;50.974;11.330;2022-11-04T02:58:05;12.40;99.90
17815;DHT22;9031;50.974;11.330;2022-11-04T03:00:33;12.40;99.90
17815;DHT22;9031;50.974;11.330;2022-11-04T03:03:07;12.40;99.90
17815;DHT22;9031;50.974;11.330;2022-11-04T03:05:35;12.30;99.90
17815;DHT22;9031;50.974;11.330;2022-11-04T03:08:15;12.30;99.90
17815;DHT22;9031;50.974;11.330;2022-11-04T03:10:45;12.20;99.90
17815;DHT22;9031;50.974;11.330;2022-11-04T03:13:16;12.20;99.90
17815;DHT22;9031;50.974;11.330;2022-11-04T03:15:52;12.20;99.90
17815;DHT22;9031;50.974;11.330;2022-11-04T03:18:40;12.10;99.90
17815;DHT22;9031;50.974;11.330;2022-11-04T03:21:08;12.20;99.90
17815;DHT22;9031;50.974;11.330;2022-11-04T03:23:35;12.10;99.90
17815;DHT22;9031;50.974;11.330;2022-11-04T03:26:19;12.10;99.90
17815;DHT22;9031;50.974;11.330;2022-11-04T03:31:27;12.20;99.90
17815;DHT22;9031;50.974;11.330;2022-11-04T03:33:55;12.20;99.90
17815;DHT22;9031;50.974;11.330;2022-11-04T03:36:21;12.30;99.90
17815;DHT22;9031;50.974;11.330;2022-11-04T03:38:49;12.20;99.90
17815;DHT22;9031;50.974;11.330;2022-11-04T03:41:22;12.30;99.90
17815;DHT22;9031;50.974;11.330;2022-11-04T03:43:48;12.30;99.90
17815;DHT22;9031;50.974;11.330;2022-11-04T03:46:14;12.40;99.90
17815;DHT22;9031;50.974;11.330;2022-11-04T03:48:40;12.40;99.90
17815;DHT22;9031;50.974;11.330;2022-11-04T03:51:07;12.40;99.90
17815;DHT22;9031;50.974;11.330;2022-11-04T03:53:33;12.40;99.90
17815;DHT22;9031;50.974;11.330;2022-11-04T03:56:20;12.40;99.90
17815;DHT22;9031;50.974;11.330;2022-11-04T03:59:04;12.40;99.90
17815;DHT22;9031;50.974;11.330;2022-11-04T04:01:43;12.40;99.90
17815;DHT22;9031;50.974;11.330;2022-11-04T04:04:28;12.40;99.90
17815;DHT22;9031;50.974;11.330;2022-11-04T04:07:00;12.40;99.90
17815;DHT22;9031;50.974;11.330;2022-11-04T04:12:34;12.40;99.90
17815;DHT22;9031;50.974;11.330;2022-11-04T04:15:10;12.30;99.90
17815;DHT22;9031;50.974;11.330;2022-11-04T04:17:46;12.30;99.90
17815;DHT22;9031;50.974;11.330;2022-11-04T04:20:18;12.30;99.90
17815;DHT22;9031;50.974;11.330;2022-11-04T04:22:50;12.20;99.90
17815;DHT22;9031;50.974;11.330;2022-11-04T04:25:17;12.30;99.90
17815;DHT22;9031;50.974;11.330;2022-11-04T04:28:03;12.20;99.90
17815;DHT22;9031;50.974;11.330;2022-11-04T04:30:29;12.20;99.90
17815;DHT22;9031;50.974;11.330;2022-11-04T04:32:59;12.30;99.90
17815;DHT22;9031;50.974;11.330;2022-11-04T04:35:35;12.30;99.90
17815;DHT22;9031;50.974;11.330;2022-11-04T04:38:19;12.30;99.90
17815;DHT22;9031;50.974;11.330;2022-11-04T04:41:25;12.30;99.90
17815;DHT22;9031;50.974;11.330;2022-11-04T04:44:25;12.30;99.90
17815;DHT22;9031;50.974;11.330;2022-11-04T04:47:12;12.10;99.90
17815;DHT22;9031;50.974;11.330;2022-11-04T04:49:55;12.10;99.90
17815;DHT22;9031;50.974;11.330;2022-11-04T04:52:23;12.10;99.90
17815;DHT22;9031;50.974;11.330;2022-11-04T04:54:49;12.00;99.90
17815;DHT22;9031;50.974;11.330;2022-11-04T04:57:15;12.00;99.90
17815;DHT22;9031;50.974;11.330;2022-11-04T04:59:40;12.00;99.90
17815;DHT22;9031;50.974;11.330;2022-11-04T05:02:06;12.10;99.90
17815;DHT22;9031;50.974;11.330;2022-11-04T05:04:32;12.00;99.90
17815;DHT22;9031;50.974;11.330;2022-11-04T05:06:57;12.10;99.90
17815;DHT22;9031;50.974;11.330;2022-11-04T05:09:23;12.10;99.90
17815;DHT22;9031;50.974;11.330;2022-11-04T05:11:48;12.20;99.90
17815;DHT22;9031;50.974;11.330;2022-11-04T05:14:14;12.00;99.90
17815;DHT22;9031;50.974;11.330;2022-11-04T05:16:39;12.00;99.90
17815;DHT22;9031;50.974;11.330;2022-11-04T05:19:05;11.90;99.90
17815;DHT22;9031;50.974;11.330;2022-11-04T05:21:30;11.60;99.90
17815;DHT22;9031;50.974;11.330;2022-11-04T05:23:56;11.50;99.90
17815;DHT22;9031;50.974;11.330;2022-11-04T05:26:21;11.30;99.90
17815;DHT22;9031;50.974;11.330;2022-11-04T05:28:47;11.20;99.90
17815;DHT22;9031;50.974;11.330;2022-11-04T05:31:12;11.10;99.90
17815;DHT22;9031;50.974;11.330;2022-11-04T05:33:38;10.90;99.90
17815;DHT22;9031;50.974;11.330;2022-11-04T05:36:10;10.90;99.90
17815;DHT22;9031;50.974;11.330;2022-11-04T05:38:36;10.90;99.90
17815;DHT22;9031;50.974;11.330;2022-11-04T05:41:03;10.90;99.90
17815;DHT22;9031;50.974;11.330;2022-11-04T05:43:28;10.90;99.90
17815;DHT22;9031;50.974;11.330;2022-11-04T05:45:54;10.90;99.90
17815;DHT22;9031;50.974;11.330;2022-11-04T05:48:19;10.90;99.90
17815;DHT22;9031;50.974;11.330;2022-11-04T05:50:45;10.90;99.90
17815;DHT22;9031;50.974;11.330;2022-11-04T05:53:11;10.80;99.90
17815;DHT22;9031;50.974;11.330;2022-11-04T05:55:36;10.80;99.90
17815;DHT22;9031;50.974;11.330;2022-11-04T05:58:02;10.70;99.90
17815;DHT22;9031;50.974;11.330;2022-11-04T06:00:28;10.80;99.90
17815;DHT22;9031;50.974;11.330;2022-11-04T06:02:54;10.80;99.90
17815;DHT22;9031;50.974;11.330;2022-11-04T06:05:23;10.80;99.90
17815;DHT22;9031;50.974;11.330;2022-11-04T06:07:49;10.80;99.90
17815;DHT22;9031;50.974;11.330;2022-11-04T06:10:14;10.80;99.90
17815;DHT22;9031;50.974;11.330;2022-11-04T06:12:40;10.70;99.90
17815;DHT22;9031;50.974;11.330;2022-11-04T06:15:06;10.80;99.90
17815;DHT22;9031;50.974;11.330;2022-11-04T06:17:31;10.80;99.90
17815;DHT22;9031;50.974;11.330;2022-11-04T06:19:57;10.80;99.90
17815;DHT22;9031;50.974;11.330;2022-11-04T06:22:22;10.80;99.90
17815;DHT22;9031;50.974;11.330;2022-11-04T06:24:48;10.80;99.90
17815;DHT22;9031;50.974;11.330;2022-11-04T06:27:14;10.70;99.90
17815;DHT22;9031;50.974;11.330;2022-11-04T06:29:40;10.70;99.90
17815;DHT22;9031;50.974;11.330;2022-11-04T06:32:13;10.70;99.90
17815;DHT22;9031;50.974;11.330;2022-11-04T06:34:39;10.70;99.90
17815;DHT22;9031;50.974;11.330;2022-11-04T06:37:05;10.70;99.90
17815;DHT22;9031;50.974;11.330;2022-11-04T06:39:30;10.70;99.90
17815;DHT22;9031;50.974;11.330;2022-11-04T06:41:56;10.80;99.90
17815;DHT22;9031;50.974;11.330;2022-11-04T06:44:22;10.70;99.90
17815;DHT22;9031;50.974;11.330;2022-11-04T06:46:48;10.70;99.90
17815;DHT22;9031;50.974;11.330;2022-11-04T06:49:19;10.70;99.90
17815;DHT22;9031;50.974;11.330;2022-11-04T06:51:45;10.70;99.90
17815;DHT22;9031;50.974;11.330;2022-11-04T06:54:11;10.70;99.90
17815;DHT22;9031;50.974;11.330;2022-11-04T06:56:37;10.80;99.90
17815;DHT22;9031;50.974;11.330;2022-11-04T06:59:03;10.70;99.90
17815;DHT22;9031;50.974;11.330;2022-11-04T07:01:33;10.80;99.90
17815;DHT22;9031;50.974;11.330;2022-11-04T07:03:59;10.70;99.90
17815;DHT22;9031;50.974;11.330;2022-11-04T07:06:26;10.80;99.90
17815;DHT22;9031;50.974;11.330;2022-11-04T07:08:55;10.80;99.90
17815;DHT22;9031;50.974;11.330;2022-11-04T07:11:21;10.90;99.90
17815;DHT22;9031;50.974;11.330;2022-11-04T07:13:48;10.80;99.90
17815;DHT22;9031;50.974;11.330;2022-11-04T07:16:13;10.80;99.90
17815;DHT22;9031;50.974;11.330;2022-11-04T07:18:39;10.80;99.90
17815;DHT22;9031;50.974;11.330;2022-11-04T07:21:05;10.80;99.90
17815;DHT22;9031;50.974;11.330;2022-11-04T07:23:31;10.80;99.90
17815;DHT22;9031;50.974;11.330;2022-11-04T07:26:04;10.90;99.90
17815;DHT22;9031;50.974;11.330;2022-11-04T07:28:30;10.90;99.90
17815;DHT22;9031;50.974;11.330;2022-11-04T07:30:57;10.80;99.90
17815;DHT22;9031;50.974;11.330;2022-11-04T07:33:24;10.80;99.90
17815;DHT22;9031;50.974;11.330;2022-11-04T07:35:50;10.70;99.90
17815;DHT22;9031;50.974;11.330;2022-11-04T07:38:16;10.80;99.90
17815;DHT22;9031;50.974;11.330;2022-11-04T07:40:41;10.70;99.90
17815;DHT22;9031;50.974;11.330;2022-11-04T07:43:07;10.80;99.90
17815;DHT22;9031;50.974;11.330;2022-11-04T07:45:32;10.70;99.90
17815;DHT22;9031;50.974;11.330;2022-11-04T07:47:58;10.70;99.90
17815;DHT22;9031;50.974;11.330;2022-11-04T07:50:23;10.70;99.90
17815;DHT22;9031;50.974;11.330;2022-11-04T07:52:49;10.80;99.90
17815;DHT22;9031;50.974;11.330;2022-11-04T07:55:16;10.80;99.90
17815;DHT22;9031;50.974;11.330;2022-11-04T07:57:46;10.80;99.90
17815;DHT22;9031;50.974;11.330;2022-11-04T08:00:13;10.90;99.90
17815;DHT22;9031;50.974;11.330;2022-11-04T08:02:40;10.80;99.90
17815;DHT22;9031;50.974;11.330;2022-11-04T08:05:07;10.80;99.90
17815;DHT22;9031;50.974;11.330;2022-11-04T08:07:32;10.80;99.90
17815;DHT22;9031;50.974;11.330;2022-11-04T08:09:58;10.90;99.90
17815;DHT22;9031;50.974;11.330;2022-11-04T08:12:23;10.90;99.90
17815;DHT22;9031;50.974;11.330;2022-11-04T08:14:49;10.90;99.90
17815;DHT22;9031;50.974;11.330;2022-11-04T08:17:15;10.90;99.90
17815;DHT22;9031;50.974;11.330;2022-11-04T08:19:41;11.00;99.90
17815;DHT22;9031;50.974;11.330;2022-11-04T08:22:07;10.90;99.90
17815;DHT22;9031;50.974;11.330;2022-11-04T08:24:33;10.90;99.90
17815;DHT22;9031;50.974;11.330;2022-11-04T08:26:58;10.90;99.90
17815;DHT22;9031;50.974;11.330;2022-11-04T08:29:24;10.90;99.90
17815;DHT22;9031;50.974;11.330;2022-11-04T08:31:49;10.90;99.90
17815;DHT22;9031;50.974;11.330;2022-11-04T08:34:15;10.90;99.90
17815;DHT22;9031;50.974;11.330;2022-11-04T08:36:43;10.90;99.90
17815;DHT22;9031;50.974;11.330;2022-11-04T08:39:10;11.00;99.90
17815;DHT22;9031;50.974;11.330;2022-11-04T08:41:38;11.00;99.90
17815;DHT22;9031;50.974;11.330;2022-11-04T08:44:05;11.00;99.90
17815;DHT22;9031;50.974;11.330;2022-11-04T08:46:37;11.00;99.90
17815;DHT22;9031;50.974;11.330;2022-11-04T08:49:03;11.10;99.90
17815;DHT22;9031;50.974;11.330;2022-11-04T08:51:30;11.10;99.90
17815;DHT22;9031;50.974;11.330;2022-11-04T08:53:57;11.10;99.90
17815;DHT22;9031;50.974;11.330;2022-11-04T08:56:26;11.30;99.90
17815;DHT22;9031;50.974;11.330;2022-11-04T08:58:52;11.40;99.90
17815;DHT22;9031;50.974;11.330;2022-11-04T09:01:19;11.50;99.90
17815;DHT22;9031;50.974;11.330;2022-11-04T09:03:46;11.60;99.90
17815;DHT22;9031;50.974;11.330;2022-11-04T09:06:14;11.70;99.90
17815;DHT22;9031;50.974;11.330;2022-11-04T09:08:41;11.60;99.90
17815;DHT22;9031;50.974;11.330;2022-11-04T09:11:10;11.60;99.90
17815;DHT22;9031;50.974;11.330;2022-11-04T09:13:36;11.60;99.90
17815;DHT22;9031;50.974;11.330;2022-11-04T09:16:03;11.70;99.90
17815;DHT22;9031;50.974;11.330;2022-11-04T09:18:29;11.80;99.90
17815;DHT22;9031;50.974;11.330;2022-11-04T09:20:55;11.80;99.90
17815;DHT22;9031;50.974;11.330;2022-11-04T09:23:24;11.80;99.90
17815;DHT22;9031;50.974;11.330;2022-11-04T09:25:50;11.80;99.90
17815;DHT22;9031;50.974;11.330;2022-11-04T09:28:15;11.60;99.90
17815;DHT22;9031;50.974;11.330;2022-11-04T09:30:41;11.50;99.90
17815;DHT22;9031;50.974;11.330;2022-11-04T09:33:06;11.50;99.90
17815;DHT22;9031;50.974;11.330;2022-11-04T09:35:32;11.60;99.90
17815;DHT22;9031;50.974;11.330;2022-11-04T09:37:58;11.50;99.90
17815;DHT22;9031;50.974;11.330;2022-11-04T09:40:25;11.60;99.90
17815;DHT22;9031;50.974;11.330;2022-11-04T09:43:18;11.50;99.90
17815;DHT22;9031;50.974;11.330;2022-11-04T09:45:48;11.50;99.90
17815;DHT22;9031;50.974;11.330;2022-11-04T09:48:25;11.50;99.90
17815;DHT22;9031;50.974;11.330;2022-11-04T09:50:59;11.40;99.90
17815;DHT22;9031;50.974;11.330;2022-11-04T09:53:30;11.50;99.90
17815;DHT22;9031;50.974;11.330;2022-11-04T09:58:46;11.40;99.90
17815;DHT22;9031;50.974;11.330;2022-11-04T10:06:52;11.40;99.90
17815;DHT22;9031;50.974;11.330;2022-11-04T10:09:31;11.40;99.90
17815;DHT22;9031;50.974;11.330;2022-11-04T10:18:13;11.40;99.90
17815;DHT22;9031;50.974;11.330;2022-11-04T10:20:51;11.60;99.90
17815;DHT22;9031;50.974;11.330;2022-11-04T10:23:22;11.50;99.90
17815;DHT22;9031;50.974;11.330;2022-11-04T10:25:56;11.50;99.90
17815;DHT22;9031;50.974;11.330;2022-11-04T10:28:32;11.50;99.90
17815;DHT22;9031;50.974;11.330;2022-11-04T10:31:00;11.40;99.90
17815;DHT22;9031;50.974;11.330;2022-11-04T10:33:36;11.60;99.90
17815;DHT22;9031;50.974;11.330;2022-11-04T10:36:06;11.60;99.90
17815;DHT22;9031;50.974;11.330;2022-11-04T10:38:43;11.70;99.90
17815;DHT22;9031;50.974;11.330;2022-11-04T10:43:53;11.60;99.90
17815;DHT22;9031;50.974;11.330;2022-11-04T10:48:50;11.80;99.90
17815;DHT22;9031;50.974;11.330;2022-11-04T10:51:17;11.90;99.90
17815;DHT22;9031;50.974;11.330;2022-11-04T10:53:47;11.80;99.90
17815;DHT22;9031;50.974;11.330;2022-11-04T10:58:52;11.80;99.90
17815;DHT22;9031;50.974;11.330;2022-11-04T11:01:25;11.80;99.90
17815;DHT22;9031;50.974;11.330;2022-11-04T11:03:51;11.70;99.90
17815;DHT22;9031;50.974;11.330;2022-11-04T11:06:23;11.70;99.90
17815;DHT22;9031;50.974;11.330;2022-11-04T11:08:49;11.70;99.90
17815;DHT22;9031;50.974;11.330;2022-11-04T11:11:16;11.70;99.90
17815;DHT22;9031;50.974;11.330;2022-11-04T11:13:58;11.70;99.90
17815;DHT22;9031;50.974;11.330;2022-11-04T11:16:27;11.70;99.90
17815;DHT22;9031;50.974;11.330;2022-11-04T11:19:12;11.70;99.90
17815;DHT22;9031;50.974;11.330;2022-11-04T11:21:47;11.80;99.90
17815;DHT22;9031;50.974;11.330;2022-11-04T11:24:23;11.80;99.90
17815;DHT22;9031;50.974;11.330;2022-11-04T11:26:52;11.80;99.90
17815;DHT22;9031;50.974;11.330;2022-11-04T11:29:22;11.80;99.90
17815;DHT22;9031;50.974;11.330;2022-11-04T11:31:49;11.90;99.90
17815;DHT22;9031;50.974;11.330;2022-11-04T11:34:32;11.90;99.90
17815;DHT22;9031;50.974;11.330;2022-11-04T11:37:00;11.90;99.90
17815;DHT22;9031;50.974;11.330;2022-11-04T11:39:31;12.10;99.90
17815;DHT22;9031;50.974;11.330;2022-11-04T11:44:33;12.20;99.90
17815;DHT22;9031;50.974;11.330;2022-11-04T11:47:12;12.40;99.90
17815;DHT22;9031;50.974;11.330;2022-11-04T11:49:43;12.70;99.90
17815;DHT22;9031;50.974;11.330;2022-11-04T11:52:33;13.10;99.90
17815;DHT22;9031;50.974;11.330;2022-11-04T11:55:30;13.20;99.90
17815;DHT22;9031;50.974;11.330;2022-11-04T11:58:19;14.00;99.90
17815;DHT22;9031;50.974;11.330;2022-11-04T12:00:57;14.40;99.90
17815;DHT22;9031;50.974;11.330;2022-11-04T12:03:30;14.60;99.90
17815;DHT22;9031;50.974;11.330;2022-11-04T12:14:35;15.90;99.90
17815;DHT22;9031;50.974;11.330;2022-11-04T12:17:21;16.50;99.90
17815;DHT22;9031;50.974;11.330;2022-11-04T12:19:58;17.00;99.90
17815;DHT22;9031;50.974;11.330;2022-11-04T12:22:42;17.20;99.90
17815;DHT22;9031;50.974;11.330;2022-11-04T12:28:23;17.20;99.90
17815;DHT22;9031;50.974;11.330;2022-11-04T12:36:15;17.10;99.90
17815;DHT22;9031;50.974;11.330;2022-11-04T12:41:44;15.10;99.90
17815;DHT22;9031;50.974;11.330;2022-11-04T12:44:35;15.00;99.90
17815;DHT22;9031;50.974;11.330;2022-11-04T12:55:39;13.30;99.90
17815;DHT22;9031;50.974;11.330;2022-11-04T13:03:53;13.30;99.90
17815;DHT22;9031;50.974;11.330;2022-11-04T13:12:15;13.20;99.90
17815;DHT22;9031;50.974;11.330;2022-11-04T13:15:04;13.20;99.90
17815;DHT22;9031;50.974;11.330;2022-11-04T13:17:34;13.30;99.90
17815;DHT22;9031;50.974;11.330;2022-11-04T13:20:12;13.50;99.90
17815;DHT22;9031;50.974;11.330;2022-11-04T13:22:47;13.70;99.90
17815;DHT22;9031;50.974;11.330;2022-11-04T13:25:23;13.50;99.90
17815;DHT22;9031;50.974;11.330;2022-11-04T13:27:51;13.50;99.90
17815;DHT22;9031;50.974;11.330;2022-11-04T13:30:35;13.30;99.90
17815;DHT22;9031;50.974;11.330;2022-11-04T13:38:40;13.30;99.90
17815;DHT22;9031;50.974;11.330;2022-11-04T13:43:53;13.30;99.90
17815;DHT22;9031;50.974;11.330;2022-11-04T13:46:22;13.30;99.90
17815;DHT22;9031;50.974;11.330;2022-11-04T13:51:18;13.30;99.90
17815;DHT22;9031;50.974;11.330;2022-11-04T13:56:44;13.10;99.90
17815;DHT22;9031;50.974;11.330;2022-11-04T13:59:21;13.20;99.90
17815;DHT22;9031;50.974;11.330;2022-11-04T14:01:47;13.20;99.90
17815;DHT22;9031;50.974;11.330;2022-11-04T14:04:27;13.10;99.90
17815;DHT22;9031;50.974;11.330;2022-11-04T14:06:58;13.00;99.90
17815;DHT22;9031;50.974;11.330;2022-11-04T14:14:53;12.90;99.90
17815;DHT22;9031;50.974;11.330;2022-11-04T14:20:26;12.80;99.90
17815;DHT22;9031;50.974;11.330;2022-11-04T14:23:04;12.60;99.90
17815;DHT22;9031;50.974;11.330;2022-11-04T14:25:39;12.60;99.90
17815;DHT22;9031;50.974;11.330;2022-11-04T14:30:41;12.60;99.90
17815;DHT22;9031;50.974;11.330;2022-11-04T14:33:31;12.60;99.90
17815;DHT22;9031;50.974;11.330;2022-11-04T14:38:39;12.40;99.90
17815;DHT22;9031;50.974;11.330;2022-11-04T14:41:19;12.30;99.90
17815;DHT22;9031;50.974;11.330;2022-11-04T14:43:46;12.10;99.90
17815;DHT22;9031;50.974;11.330;2022-11-04T14:46:18;12.10;99.90
17815;DHT22;9031;50.974;11.330;2022-11-04T14:48:47;12.10;99.90
17815;DHT22;9031;50.974;11.330;2022-11-04T14:51:21;12.00;99.90
17815;DHT22;9031;50.974;11.330;2022-11-04T14:53:49;12.10;99.90
17815;DHT22;9031;50.974;11.330;2022-11-04T14:56:20;12.10;99.90
17815;DHT22;9031;50.974;11.330;2022-11-04T14:58:54;12.00;99.90
17815;DHT22;9031;50.974;11.330;2022-11-04T15:01:20;11.90;99.90
17815;DHT22;9031;50.974;11.330;2022-11-04T15:03:47;11.80;99.90
17815;DHT22;9031;50.974;11.330;2022-11-04T15:06:22;11.80;99.90
17815;DHT22;9031;50.974;11.330;2022-11-04T15:08:49;11.80;99.90
17815;DHT22;9031;50.974;11.330;2022-11-04T15:11:38;11.80;99.90
17815;DHT22;9031;50.974;11.330;2022-11-04T15:14:24;11.90;99.90
17815;DHT22;9031;50.974;11.330;2022-11-04T15:16:53;11.90;99.90
17815;DHT22;9031;50.974;11.330;2022-11-04T15:19:31;11.90;99.90
17815;DHT22;9031;50.974;11.330;2022-11-04T15:21:58;11.70;99.90
17815;DHT22;9031;50.974;11.330;2022-11-04T15:24:26;11.70;99.90
17815;DHT22;9031;50.974;11.330;2022-11-04T15:26:54;11.60;99.90
17815;DHT22;9031;50.974;11.330;2022-11-04T15:29:23;11.50;99.90
17815;DHT22;9031;50.974;11.330;2022-11-04T15:31:58;11.50;99.90
17815;DHT22;9031;50.974;11.330;2022-11-04T15:34:26;11.50;99.90
17815;DHT22;9031;50.974;11.330;2022-11-04T15:37:00;11.40;99.90
17815;DHT22;9031;50.974;11.330;2022-11-04T15:39:34;11.30;99.90
17815;DHT22;9031;50.974;11.330;2022-11-04T15:42:02;11.30;99.90
17815;DHT22;9031;50.974;11.330;2022-11-04T15:44:53;11.20;99.90
17815;DHT22;9031;50.974;11.330;2022-11-04T15:47:20;11.20;99.90
17815;DHT22;9031;50.974;11.330;2022-11-04T15:49:48;11.10;99.90
17815;DHT22;9031;50.974;11.330;2022-11-04T15:52:22;11.10;99.90
17815;DHT22;9031;50.974;11.330;2022-11-04T15:54:53;11.10;99.90
17815;DHT22;9031;50.974;11.330;2022-11-04T15:57:23;11.00;99.90
17815;DHT22;9031;50.974;11.330;2022-11-04T15:59:55;11.00;99.90
17815;DHT22;9031;50.974;11.330;2022-11-04T16:02:28;11.10;99.90
17815;DHT22;9031;50.974;11.330;2022-11-04T16:07:40;11.00;99.90
17815;DHT22;9031;50.974;11.330;2022-11-04T16:15:31;10.80;99.90
17815;DHT22;9031;50.974;11.330;2022-11-04T16:17:57;10.90;99.90
17815;DHT22;9031;50.974;11.330;2022-11-04T16:20:22;10.90;99.90
17815;DHT22;9031;50.974;11.330;2022-11-04T16:22:55;10.90;99.90
17815;DHT22;9031;50.974;11.330;2022-11-04T16:25:22;10.80;99.90
17815;DHT22;9031;50.974;11.330;2022-11-04T16:27:48;10.60;99.90
17815;DHT22;9031;50.974;11.330;2022-11-04T16:30:22;10.60;99.90
17815;DHT22;9031;50.974;11.330;2022-11-04T16:32:50;10.50;99.90
17815;DHT22;9031;50.974;11.330;2022-11-04T16:35:23;10.50;99.90
17815;DHT22;9031;50.974;11.330;2022-11-04T16:37:50;10.50;99.90
17815;DHT22;9031;50.974;11.330;2022-11-04T16:40:17;10.50;99.90
17815;DHT22;9031;50.974;11.330;2022-11-04T16:42:43;10.40;99.90
17815;DHT22;9031;50.974;11.330;2022-11-04T16:45:25;10.40;99.90
17815;DHT22;9031;50.974;11.330;2022-11-04T16:47:52;10.30;99.90
17815;DHT22;9031;50.974;11.330;2022-11-04T16:50:17;10.30;99.90
17815;DHT22;9031;50.974;11.330;2022-11-04T16:52:43;10.20;99.90
17815;DHT22;9031;50.974;11.330;2022-11-04T16:55:11;10.30;99.90
17815;DHT22;9031;50.974;11.330;2022-11-04T16:57:36;10.30;99.90
17815;DHT22;9031;50.974;11.330;2022-11-04T17:00:03;10.30;99.90
17815;DHT22;9031;50.974;11.330;2022-11-04T17:02:33;10.20;99.90
17815;DHT22;9031;50.974;11.330;2022-11-04T17:05:06;10.20;99.90
17815;DHT22;9031;50.974;11.330;2022-11-04T17:07:32;10.10;99.90
17815;DHT22;9031;50.974;11.330;2022-11-04T17:09:58;10.00;99.90
17815;DHT22;9031;50.974;11.330;2022-11-04T17:12:23;10.00;99.90
17815;DHT22;9031;50.974;11.330;2022-11-04T17:14:49;10.00;99.90
17815;DHT22;9031;50.974;11.330;2022-11-04T17:17:15;10.00;99.90
17815;DHT22;9031;50.974;11.330;2022-11-04T17:19:41;9.90;99.90
17815;DHT22;9031;50.974;11.330;2022-11-04T17:22:07;9.90;99.90
17815;DHT22;9031;50.974;11.330;2022-11-04T17:24:33;9.90;99.90
17815;DHT22;9031;50.974;11.330;2022-11-04T17:26:59;9.90;99.90
17815;DHT22;9031;50.974;11.330;2022-11-04T17:29:24;9.80;99.90
17815;DHT22;9031;50.974;11.330;2022-11-04T17:31:50;9.70;99.90
17815;DHT22;9031;50.974;11.330;2022-11-04T17:34:17;9.70;99.90
17815;DHT22;9031;50.974;11.330;2022-11-04T17:36:43;9.60;99.90
17815;DHT22;9031;50.974;11.330;2022-11-04T17:39:08;9.60;99.90
17815;DHT22;9031;50.974;11.330;2022-11-04T17:41:34;9.60;99.90
17815;DHT22;9031;50.974;11.330;2022-11-04T17:44:18;9.60;99.90
17815;DHT22;9031;50.974;11.330;2022-11-04T17:46:43;9.50;99.90
17815;DHT22;9031;50.974;11.330;2022-11-04T17:49:14;9.50;99.90
17815;DHT22;9031;50.974;11.330;2022-11-04T17:51:42;9.50;99.90
17815;DHT22;9031;50.974;11.330;2022-11-04T17:54:08;9.50;99.90
17815;DHT22;9031;50.974;11.330;2022-11-04T17:56:34;9.50;99.90